createdAt,value
2022-12-24T00:01:34.451Z,99978.06
2022-12-24T00:04:02.050Z,99983.47
2022-12-24T00:06:28.644Z,99994.91
2022-12-24T00:08:55.209Z,99988.72
2022-12-24T00:11:22.059Z,99998.31
2022-12-24T00:13:49.119Z,100008.03
2022-12-24T00:16:16.044Z,100009.84
2022-12-24T00:18:46.401Z,100010.72
2022-12-24T00:21:13.696Z,100015.94
2022-12-24T00:23:40.534Z,100022.16
2022-12-24T00:26:07.001Z,100035.34
2022-12-24T00:28:33.426Z,100013.50
2022-12-24T00:30:59.903Z,100022.16
2022-12-24T00:33:26.440Z,100024.94
2022-12-24T00:35:53.535Z,100028.41
2022-12-24T00:38:20.176Z,100021.63
2022-12-24T00:40:46.808Z,100024.25
2022-12-24T00:43:13.234Z,100026.00
2022-12-24T00:45:39.719Z,100033.03
2022-12-24T00:48:06.382Z,100033.19
2022-12-24T00:50:32.851Z,100026.34
2022-12-24T00:52:59.348Z,100035.16
2022-12-24T00:55:25.831Z,100040.31
2022-12-24T00:57:52.234Z,100043.94
2022-12-24T01:00:19.019Z,100049.13
2022-12-24T01:02:45.750Z,100047.41
2022-12-24T01:05:12.692Z,100049.13
2022-12-24T01:07:41.901Z,100052.59
2022-12-24T01:10:09.437Z,100050.91
2022-12-24T01:12:36.415Z,100054.56
2022-12-24T01:15:03.664Z,100058.03
2022-12-24T01:17:33.002Z,100069.16
2022-12-24T01:19:59.456Z,100084.03
2022-12-24T01:22:26.079Z,100091.06
2022-12-24T01:24:52.618Z,100090.25
2022-12-24T01:27:19.253Z,100099.72
2022-12-24T01:29:45.741Z,100093.59
2022-12-24T01:32:12.315Z,100104.94
2022-12-24T01:34:38.804Z,100105.00
2022-12-24T01:37:05.271Z,100101.47
2022-12-24T01:39:31.798Z,100106.84
2022-12-24T01:42:16.856Z,100100.84
2022-12-24T01:44:48.192Z,100101.81
2022-12-24T01:47:21.723Z,100106.09
2022-12-24T01:50:09.442Z,100113.94
2022-12-24T01:52:36.821Z,100104.38
2022-12-24T01:55:06.245Z,100112.34
2022-12-24T01:57:41.719Z,100114.16
2022-12-24T02:00:13.816Z,100111.63
2022-12-24T02:02:42.950Z,100122.09
2022-12-24T02:05:18.853Z,100114.28
2022-12-24T02:07:46.401Z,100129.97
2022-12-24T02:10:14.315Z,100135.28
2022-12-24T02:12:42.286Z,100135.38
2022-12-24T02:15:11.916Z,100134.53
2022-12-24T02:18:03.387Z,100142.31
2022-12-24T02:20:38.668Z,100141.47
2022-12-24T02:23:30.057Z,100145.75
2022-12-24T02:26:16.776Z,100151.94
2022-12-24T02:28:46.461Z,100149.47
2022-12-24T02:31:37.219Z,100159.03
2022-12-24T02:34:09.866Z,100158.22
2022-12-24T02:36:48.535Z,100155.66
2022-12-24T02:39:31.910Z,100169.56
2022-12-24T02:42:05.832Z,100165.38
2022-12-24T02:44:41.065Z,100168.88
2022-12-24T02:47:09.884Z,100163.66
2022-12-24T02:49:37.814Z,100174.16
2022-12-24T02:52:04.643Z,100167.28
2022-12-24T02:54:31.285Z,100176.75
2022-12-24T02:57:09.484Z,100167.28
2022-12-24T02:59:45.066Z,100170.00
2022-12-24T03:02:45.842Z,100176.16
2022-12-24T03:05:21.406Z,100183.19
2022-12-24T03:08:02.599Z,100179.50
2022-12-24T03:10:53.519Z,100176.84
2022-12-24T03:13:21.645Z,100179.41
2022-12-24T03:15:50.247Z,100181.19
2022-12-24T03:18:26.603Z,100182.81
2022-12-24T03:21:00.594Z,100180.25
2022-12-24T03:23:27.463Z,100175.00
2022-12-24T03:25:54.551Z,100191.50
2022-12-24T03:28:27.708Z,100181.00
2022-12-24T03:30:54.783Z,100183.59
2022-12-24T03:33:21.525Z,100195.72
2022-12-24T03:35:48.172Z,100188.56
2022-12-24T03:38:14.640Z,100190.13
2022-12-24T03:40:41.087Z,100189.16
2022-12-24T03:43:07.558Z,100196.91
2022-12-24T03:45:34.084Z,100199.66
2022-12-24T03:48:00.598Z,100198.91
2022-12-24T03:50:27.225Z,100195.47
2022-12-24T03:52:54.794Z,100196.22
2022-12-24T03:55:21.715Z,100199.66
2022-12-24T03:57:48.486Z,100213.47
2022-12-24T04:00:15.604Z,100206.63
2022-12-24T04:02:42.271Z,100207.34
2022-12-24T04:05:14.636Z,100212.66
2022-12-24T04:07:41.122Z,100208.25
2022-12-24T04:10:08.146Z,100223.09
2022-12-24T04:12:34.560Z,100223.19
2022-12-24T04:15:00.968Z,100220.63
2022-12-24T04:17:27.380Z,100217.16
2022-12-24T04:19:53.916Z,100218.06
2022-12-24T04:22:20.351Z,100225.00
2022-12-24T04:24:47.095Z,100221.53
2022-12-24T04:27:17.137Z,100226.69
2022-12-24T04:29:43.617Z,100234.59
2022-12-24T04:32:10.554Z,100244.16
2022-12-24T04:34:37.421Z,100239.84
2022-12-24T04:37:04.154Z,100243.34
2022-12-24T04:39:30.560Z,100248.63
2022-12-24T04:41:57.033Z,100242.56
2022-12-24T04:44:23.628Z,100253.91
2022-12-24T04:46:50.032Z,100239.19
2022-12-24T04:49:16.466Z,100249.69
2022-12-24T04:51:42.893Z,100250.69
2022-12-24T04:54:09.429Z,100248.91
2022-12-24T04:56:36.009Z,100259.38
2022-12-24T04:59:02.601Z,100274.16
2022-12-24T05:01:31.678Z,100270.69
2022-12-24T05:03:59.164Z,100263.72
2022-12-24T05:06:29.529Z,100262.00
2022-12-24T05:08:57.266Z,100270.66
2022-12-24T05:11:24.494Z,100273.31
2022-12-24T05:13:51.207Z,100260.13
2022-12-24T05:16:19.011Z,100266.22
2022-12-24T05:18:45.566Z,100269.75
2022-12-24T05:21:15.860Z,100268.88
2022-12-24T05:24:01.447Z,100275.00
2022-12-24T05:26:32.334Z,100276.66
2022-12-24T05:29:00.645Z,100274.09
2022-12-24T05:31:29.030Z,100278.47
2022-12-24T05:33:55.791Z,100288.78
2022-12-24T05:36:23.227Z,100282.66
2022-12-24T05:38:49.927Z,100292.34
2022-12-24T05:41:16.445Z,100279.28
2022-12-24T05:43:43.090Z,100282.75
2022-12-24T05:46:11.923Z,100283.56
2022-12-24T05:48:38.452Z,100286.06
2022-12-24T05:51:07.528Z,100274.75
2022-12-24T05:53:35.255Z,100284.44
2022-12-24T05:56:10.789Z,100289.66
2022-12-24T05:58:37.839Z,100301.94
2022-12-24T06:01:05.471Z,100289.72
2022-12-24T06:03:32.465Z,100293.19
2022-12-24T06:06:11.411Z,100288.84
2022-12-24T06:08:39.445Z,100309.78
2022-12-24T06:11:10.134Z,100304.44
2022-12-24T06:13:37.208Z,100306.19
2022-12-24T06:16:05.753Z,100312.31
2022-12-24T06:18:34.357Z,100312.38
2022-12-24T06:21:00.955Z,100329.81
2022-12-24T06:23:30.116Z,100316.75
2022-12-24T06:25:58.131Z,100318.50
2022-12-24T06:28:24.650Z,100316.56
2022-12-24T06:30:52.711Z,100320.06
2022-12-24T06:33:21.120Z,100319.19
2022-12-24T06:35:48.093Z,100316.59
2022-12-24T06:38:15.639Z,100312.28
2022-12-24T06:40:45.013Z,100332.16
2022-12-24T06:43:12.466Z,100333.06
2022-12-24T06:45:39.119Z,100334.00
2022-12-24T06:48:06.582Z,100339.19
2022-12-24T06:50:33.804Z,100342.47
2022-12-24T06:53:00.264Z,100341.56
2022-12-24T06:55:26.938Z,100339.84
2022-12-24T06:57:53.485Z,100356.31
2022-12-24T07:00:21.809Z,100357.31
2022-12-24T07:02:48.317Z,100363.41
2022-12-24T07:05:15.425Z,100362.59
2022-12-24T07:07:44.020Z,100367.91
2022-12-24T07:10:13.267Z,100373.16
2022-12-24T07:12:39.822Z,100373.13
2022-12-24T07:15:07.003Z,100366.94
2022-12-24T07:17:33.575Z,100367.00
2022-12-24T07:20:00.107Z,100372.13
2022-12-24T07:22:26.594Z,100373.09
2022-12-24T07:24:52.997Z,100373.19
2022-12-24T07:27:19.462Z,100372.41
2022-12-24T07:29:45.925Z,100377.72
2022-12-24T07:32:12.391Z,100379.47
2022-12-24T07:34:39.713Z,100386.41
2022-12-24T07:37:07.333Z,100383.88
2022-12-24T07:39:33.769Z,100389.06
2022-12-24T07:42:00.207Z,100394.28
2022-12-24T07:44:26.656Z,100389.09
2022-12-24T07:46:53.165Z,100392.66
2022-12-24T07:49:20.169Z,100402.25
2022-12-24T07:51:46.623Z,100410.09
2022-12-24T07:54:13.078Z,100410.13
2022-12-24T07:56:39.611Z,100421.38
2022-12-24T07:59:06.114Z,100419.53
2022-12-24T08:01:32.667Z,100426.63
2022-12-24T08:03:59.346Z,100430.84
2022-12-24T08:06:25.869Z,100432.63
2022-12-24T08:08:52.336Z,100430.09
2022-12-24T08:11:18.820Z,100436.16
2022-12-24T08:13:45.305Z,100444.97
2022-12-24T08:16:11.984Z,100438.91
2022-12-24T08:18:38.868Z,100451.06
2022-12-24T08:21:09.269Z,100454.44
2022-12-24T08:23:37.116Z,100461.38
2022-12-24T08:26:07.383Z,100455.25
2022-12-24T08:28:33.988Z,100460.50
2022-12-24T08:31:00.792Z,100460.53
2022-12-24T08:33:27.282Z,100463.22
2022-12-24T08:35:55.538Z,100464.09
2022-12-24T08:38:22.446Z,100468.28
2022-12-24T08:40:50.444Z,100472.66
2022-12-24T08:43:17.898Z,100471.69
2022-12-24T08:45:44.916Z,100470.00
2022-12-24T08:48:11.468Z,100478.66
2022-12-24T08:50:42.332Z,100471.56
2022-12-24T08:53:09.978Z,100480.22
2022-12-24T08:55:37.024Z,100482.03
2022-12-24T08:58:03.788Z,100480.34
2022-12-24T09:00:30.276Z,100481.25
2022-12-24T09:02:57.606Z,100492.50
2022-12-24T09:05:25.825Z,100484.59
2022-12-24T09:07:52.324Z,100485.50
2022-12-24T09:10:18.882Z,100496.72
2022-12-24T09:12:45.369Z,100502.84
2022-12-24T09:15:11.788Z,100500.09
2022-12-24T09:17:38.211Z,100507.06
2022-12-24T09:20:06.928Z,100508.91
2022-12-24T09:22:38.523Z,100521.94
2022-12-24T09:25:06.373Z,100523.72
2022-12-24T09:27:33.179Z,100529.75
2022-12-24T09:29:59.688Z,100534.88
2022-12-24T09:32:26.143Z,100542.66
2022-12-24T09:34:52.617Z,100549.72
2022-12-24T09:37:19.152Z,100550.66
2022-12-24T09:39:45.683Z,100561.97
2022-12-24T09:42:42.731Z,100564.78
2022-12-24T09:45:27.178Z,100581.25
2022-12-24T09:48:09.880Z,100580.25
2022-12-24T09:50:39.255Z,100577.56
2022-12-24T09:53:18.003Z,100581.91
2022-12-24T09:55:51.906Z,100595.03
2022-12-24T09:58:49.537Z,100590.59
2022-12-24T10:01:17.964Z,100581.81
2022-12-24T10:03:45.046Z,100579.19
2022-12-24T10:06:28.511Z,100581.66
2022-12-24T10:09:03.134Z,100582.38
2022-12-24T10:11:50.828Z,100588.47
2022-12-24T10:14:35.300Z,100581.50
2022-12-24T10:17:40.834Z,100590.13
2022-12-24T10:20:30.059Z,100597.19
2022-12-24T10:23:02.333Z,100593.72
2022-12-24T10:25:34.922Z,100605.06
2022-12-24T10:28:05.935Z,100596.44
2022-12-24T10:30:34.039Z,100599.97
2022-12-24T10:33:01.095Z,100605.19
2022-12-24T10:35:36.721Z,100606.84
2022-12-24T10:38:04.329Z,100597.28
2022-12-24T10:40:51.597Z,100602.41
2022-12-24T10:43:21.471Z,100604.09
2022-12-24T10:45:52.697Z,100603.28
2022-12-24T10:48:29.391Z,100600.63
2022-12-24T10:51:14.778Z,100598.09
2022-12-24T10:53:46.681Z,100602.41
2022-12-24T10:56:15.792Z,100605.03
2022-12-24T10:58:50.883Z,100590.16
2022-12-24T11:01:17.826Z,100593.72
2022-12-24T11:03:44.555Z,100588.34
2022-12-24T11:06:20.999Z,100590.97
2022-12-24T11:08:47.761Z,100583.16
2022-12-24T11:11:20.036Z,100584.06
2022-12-24T11:13:56.072Z,100584.00
2022-12-24T11:16:36.644Z,100587.50
2022-12-24T11:19:06.198Z,100589.25
2022-12-24T11:21:39.425Z,100583.00
2022-12-24T11:24:28.890Z,100582.06
2022-12-24T11:27:29.179Z,100579.34
2022-12-24T11:30:28.428Z,100588.91
2022-12-24T11:33:01.075Z,100581.94
2022-12-24T11:35:29.126Z,100594.88
2022-12-24T11:38:01.549Z,100586.97
2022-12-24T11:40:41.115Z,100586.84
2022-12-24T11:43:15.208Z,100589.34
2022-12-24T11:45:57.442Z,100580.59
2022-12-24T11:48:32.791Z,100583.94
2022-12-24T11:51:05.182Z,100598.78
2022-12-24T11:53:41.277Z,100593.56
2022-12-24T11:56:24.693Z,100588.41
2022-12-24T11:58:55.651Z,100588.28
2022-12-24T12:01:30.624Z,100594.25
2022-12-24T12:04:20.114Z,100593.38
2022-12-24T12:06:56.787Z,100584.69
2022-12-24T12:09:28.676Z,100589.94
2022-12-24T12:12:17.730Z,100594.31
2022-12-24T12:14:50.542Z,100596.72
2022-12-24T12:17:35.323Z,100601.81
2022-12-24T12:20:11.158Z,100595.72
2022-12-24T12:22:53.062Z,100594.69
2022-12-24T12:25:42.494Z,100599.03
2022-12-24T12:28:26.886Z,100604.22
2022-12-24T12:31:15.587Z,100595.44
2022-12-24T12:34:00.896Z,100598.88
2022-12-24T12:36:34.981Z,100598.91
2022-12-24T12:39:01.742Z,100606.69
2022-12-24T12:41:56.271Z,100608.38
2022-12-24T12:44:35.484Z,100610.97
2022-12-24T12:47:39.379Z,100617.97
2022-12-24T12:50:18.817Z,100631.09
2022-12-24T12:53:19.532Z,100626.69
2022-12-24T12:55:54.863Z,100630.13
2022-12-24T12:58:31.176Z,100646.69
2022-12-24T13:01:07.345Z,100635.31
2022-12-24T13:04:01.974Z,100636.94
2022-12-24T13:06:47.425Z,100637.00
2022-12-24T13:09:26.301Z,100635.25
2022-12-24T13:12:04.710Z,100635.94
2022-12-24T13:14:52.911Z,100639.44
2022-12-24T13:17:22.390Z,100641.13
2022-12-24T13:20:26.887Z,100640.38
2022-12-24T13:23:13.512Z,100643.59
2022-12-24T13:25:45.316Z,100629.47
2022-12-24T13:28:35.013Z,100628.31
2022-12-24T13:31:01.526Z,100629.63
2022-12-24T13:33:52.565Z,100640.22
2022-12-24T13:36:20.913Z,100631.13
2022-12-24T13:38:49.678Z,100642.59
2022-12-24T13:41:41.819Z,100642.56
2022-12-24T13:44:13.083Z,100647.72
2022-12-24T13:47:02.570Z,100652.75
2022-12-24T13:49:42.215Z,100653.44
2022-12-24T13:52:11.734Z,100656.66
2022-12-24T13:54:59.519Z,100652.97
2022-12-24T13:57:41.900Z,100665.38
2022-12-24T14:00:20.550Z,100662.38
2022-12-24T14:03:01.354Z,100649.75
2022-12-24T14:05:34.626Z,100656.34
2022-12-24T14:08:04.246Z,100664.56
2022-12-24T14:10:38.100Z,100673.50
2022-12-24T14:13:09.353Z,100669.44
2022-12-24T14:15:46.567Z,100666.94
2022-12-24T14:18:22.470Z,100672.25
2022-12-24T14:20:56.549Z,100675.00
2022-12-24T14:23:59.828Z,100676.75
2022-12-24T14:26:34.111Z,100675.91
2022-12-24T14:29:08.311Z,100678.69
2022-12-24T14:31:34.865Z,100683.13
2022-12-24T14:34:12.290Z,100679.81
2022-12-24T14:36:40.009Z,100690.31
2022-12-24T14:39:10.076Z,100694.75
2022-12-24T14:42:04.687Z,100711.41
2022-12-24T14:44:45.063Z,100701.06
2022-12-24T14:47:25.801Z,100717.72
2022-12-24T14:49:58.254Z,100716.00
2022-12-24T14:55:39.707Z,100714.41
2022-12-24T14:58:22.934Z,100717.13
2022-12-24T15:00:50.464Z,100713.75
2022-12-24T15:03:19.912Z,100726.94
2022-12-24T15:05:52.297Z,100734.91
2022-12-24T15:08:25.962Z,100732.28
2022-12-24T15:10:54.802Z,100734.97
2022-12-24T15:13:21.252Z,100742.97
2022-12-24T15:15:52.865Z,100745.72
2022-12-24T15:18:26.618Z,100740.59
2022-12-24T15:21:03.801Z,100746.84
2022-12-24T15:23:37.170Z,100753.06
2022-12-24T15:26:26.590Z,100751.41
2022-12-24T15:29:01.961Z,100760.22
2022-12-24T15:31:30.352Z,100747.19
2022-12-24T15:33:59.437Z,100749.03
2022-12-24T15:36:35.610Z,100763.00
2022-12-24T15:39:06.260Z,100769.16
2022-12-24T15:41:59.895Z,100774.44
2022-12-24T15:44:33.268Z,100780.59
2022-12-24T15:47:01.215Z,100773.69
2022-12-24T15:49:30.402Z,100782.44
2022-12-24T15:52:10.683Z,100784.25
2022-12-24T15:54:37.253Z,100784.25
2022-12-24T15:57:24.416Z,100781.66
2022-12-24T15:59:56.081Z,100797.34
2022-12-24T16:02:39.581Z,100800.81
2022-12-24T16:05:29.524Z,100794.78
2022-12-24T16:08:08.093Z,100794.03
2022-12-24T16:10:48.602Z,100796.66
2022-12-24T16:13:20.174Z,100800.19
2022-12-24T16:15:59.877Z,100787.22
2022-12-24T16:18:31.976Z,100784.59
2022-12-24T16:20:58.690Z,100783.84
2022-12-24T16:23:37.420Z,100781.38
2022-12-24T16:26:04.032Z,100773.56
2022-12-24T16:28:31.698Z,100786.63
2022-12-24T16:30:58.848Z,100787.47
2022-12-24T16:33:25.415Z,100782.34
2022-12-24T16:35:52.040Z,100789.28
2022-12-24T16:38:18.851Z,100791.09
2022-12-24T16:40:45.361Z,100791.97
2022-12-24T16:43:30.428Z,100793.78
2022-12-24T16:46:06.431Z,100791.16
2022-12-24T16:48:36.685Z,100799.81
2022-12-24T16:51:03.665Z,100796.38
2022-12-24T16:53:30.098Z,100798.13
2022-12-24T16:55:56.566Z,100797.25
2022-12-24T16:58:23.127Z,100804.16
2022-12-24T17:00:49.657Z,100801.56
2022-12-24T17:03:16.314Z,100806.78
2022-12-24T17:05:44.144Z,100805.91
2022-12-24T17:08:11.429Z,100804.19
2022-12-24T17:10:38.105Z,100818.19
2022-12-24T17:13:05.250Z,100813.06
2022-12-24T17:15:31.824Z,100811.31
2022-12-24T17:17:58.366Z,100816.53
2022-12-24T17:20:24.913Z,100820.84
2022-12-24T17:22:51.995Z,100819.19
2022-12-24T17:25:18.722Z,100818.38
2022-12-24T17:27:45.406Z,100814.91
2022-12-24T17:30:12.509Z,100825.38
2022-12-24T17:32:39.850Z,100823.66
2022-12-24T17:35:07.488Z,100814.13
2022-12-24T17:37:34.118Z,100814.94
2022-12-24T17:40:00.710Z,100817.59
2022-12-24T17:42:27.502Z,100821.91
2022-12-24T17:44:54.242Z,100825.38
2022-12-24T17:47:20.917Z,100828.88
2022-12-24T17:49:47.460Z,100828.94
2022-12-24T17:52:13.901Z,100828.06
2022-12-24T17:54:40.491Z,100820.25
2022-12-24T17:57:06.986Z,100824.59
2022-12-24T17:59:33.549Z,100822.03
2022-12-24T18:02:00.346Z,100825.47
2022-12-24T18:04:26.945Z,100822.00
2022-12-24T18:06:59.660Z,100837.59
2022-12-24T18:09:29.002Z,100848.91
2022-12-24T18:11:55.556Z,100854.16
2022-12-24T18:14:22.065Z,100851.56
2022-12-24T18:16:49.285Z,100860.22
2022-12-24T18:19:16.136Z,100849.81
2022-12-24T18:21:42.608Z,100839.41
2022-12-24T18:24:10.617Z,100831.59
2022-12-24T18:26:37.087Z,100829.84
2022-12-24T18:29:08.714Z,100827.25
2022-12-24T18:31:36.083Z,100828.94
2022-12-24T18:34:04.563Z,100828.16
2022-12-24T18:36:31.547Z,100831.63
2022-12-24T18:38:58.717Z,100830.75
2022-12-24T18:41:27.765Z,100842.03
2022-12-24T18:43:55.256Z,100835.97
2022-12-24T18:46:28.309Z,100830.75
2022-12-24T18:48:57.070Z,100829.03
2022-12-24T18:51:26.602Z,100836.84
2022-12-24T18:53:53.078Z,100845.53
2022-12-24T18:56:25.038Z,100851.56
2022-12-24T18:58:57.199Z,100847.25
2022-12-24T19:01:26.511Z,100839.44
2022-12-24T19:03:53.200Z,100823.84
2022-12-24T19:06:20.929Z,100826.44
2022-12-24T19:09:03.172Z,100827.28
2022-12-24T19:11:31.959Z,100822.97
2022-12-24T19:13:59.239Z,100821.22
2022-12-24T19:16:26.926Z,100825.56
2022-12-24T19:18:53.692Z,100829.03
2022-12-24T19:21:20.318Z,100831.63
2022-12-24T19:23:47.712Z,100832.50
2022-12-24T19:26:16.149Z,100840.28
2022-12-24T19:28:43.550Z,100835.09
2022-12-24T19:31:13.592Z,100830.72
2022-12-24T19:33:43.578Z,100825.56
2022-12-24T19:36:13.247Z,100838.56
2022-12-24T19:38:39.789Z,100848.97
2022-12-24T19:41:27.566Z,100845.50
2022-12-24T19:43:56.738Z,100856.78
2022-12-24T19:46:32.688Z,100848.97
2022-12-24T19:49:05.260Z,100852.44
2022-12-24T19:51:31.890Z,100837.69
2022-12-24T19:53:59.803Z,100842.03
2022-12-24T19:56:27.959Z,100840.31
2022-12-24T19:58:55.490Z,100838.56
2022-12-24T20:01:24.746Z,100840.31
2022-12-24T20:03:53.027Z,100842.03
2022-12-24T20:06:22.825Z,100846.38
2022-12-24T20:08:49.687Z,100838.56
2022-12-24T20:11:18.619Z,100842.88
2022-12-24T20:13:45.691Z,100835.97
2022-12-24T20:16:16.006Z,100846.38
2022-12-24T20:18:43.081Z,100850.72
2022-12-24T20:21:11.739Z,100854.19
2022-12-24T20:23:39.720Z,100853.31
2022-12-24T20:26:08.996Z,100862.84
2022-12-24T20:28:36.558Z,100863.72
2022-12-24T20:31:16.930Z,100860.25
2022-12-24T20:33:44.501Z,100859.38
2022-12-24T20:36:13.343Z,100862.84
2022-12-24T20:38:40.127Z,100871.50
2022-12-24T20:41:09.566Z,100858.50
2022-12-24T20:43:43.024Z,100857.63
2022-12-24T20:46:14.174Z,100852.44
2022-12-24T20:48:41.738Z,100865.47
2022-12-24T20:51:11.087Z,100869.78
2022-12-24T20:53:39.201Z,100864.59
2022-12-24T20:56:06.288Z,100871.50
2022-12-24T20:58:32.952Z,100881.03
2022-12-24T21:00:59.548Z,100880.19
2022-12-24T21:03:26.114Z,100875.84
2022-12-24T21:05:55.445Z,100880.16
2022-12-24T21:08:21.919Z,100880.13
2022-12-24T21:10:48.383Z,100888.78
2022-12-24T21:13:14.830Z,100896.59
2022-12-24T21:15:41.330Z,100895.72
2022-12-24T21:18:11.985Z,100896.59
2022-12-24T21:20:39.922Z,100896.56
2022-12-24T21:23:06.472Z,100896.56
2022-12-24T21:25:33.453Z,100891.38
2022-12-24T21:27:59.888Z,100881.84
2022-12-24T21:30:26.458Z,100879.19
2022-12-24T21:32:52.951Z,100887.88
2022-12-24T21:35:19.434Z,100888.72
2022-12-24T21:37:46.063Z,100889.59
2022-12-24T21:40:12.763Z,100895.69
2022-12-24T21:42:39.994Z,100897.41
2022-12-24T21:45:07.401Z,100899.16
2022-12-24T21:47:35.492Z,100893.97
2022-12-24T21:50:20.620Z,100880.94
2022-12-24T21:52:47.167Z,100882.66
2022-12-24T21:55:13.697Z,100877.41
2022-12-24T21:58:09.294Z,100878.28
2022-12-24T22:00:36.079Z,100863.53
2022-12-24T22:03:02.768Z,100847.03
2022-12-24T22:05:34.385Z,100849.63
2022-12-24T22:08:19.980Z,100856.59
2022-12-24T22:11:04.849Z,100857.47
2022-12-24T22:13:31.950Z,100850.47
2022-12-24T22:15:58.672Z,100839.16
2022-12-24T22:18:26.490Z,100850.44
2022-12-24T22:20:55.767Z,100833.09
2022-12-24T22:23:22.199Z,100824.41
2022-12-24T22:25:48.799Z,100824.38
2022-12-24T22:28:15.365Z,100830.47
2022-12-24T22:30:42.942Z,100834.78
2022-12-24T22:33:10.175Z,100838.25
2022-12-24T22:35:40.295Z,100826.94
2022-12-24T22:38:08.691Z,100817.34
2022-12-24T22:40:35.177Z,100809.53
2022-12-24T22:43:01.647Z,100813.84
2022-12-24T22:45:28.249Z,100812.97
2022-12-24T22:47:55.486Z,100815.56
2022-12-24T22:50:23.256Z,100820.75
2022-12-24T22:52:53.898Z,100820.75
2022-12-24T22:55:20.580Z,100822.47
2022-12-24T22:57:47.115Z,100815.53
2022-12-24T23:00:41.376Z,100814.63
2022-12-24T23:03:08.922Z,100805.94
2022-12-24T23:05:35.520Z,100805.97
2022-12-24T23:08:02.333Z,100795.53
2022-12-24T23:10:28.821Z,100802.50
2022-12-24T23:13:15.284Z,100801.66
2022-12-24T23:15:42.399Z,100792.09
2022-12-24T23:18:09.941Z,100786.00
2022-12-24T23:20:42.186Z,100789.47
2022-12-24T23:23:09.141Z,100791.19
2022-12-24T23:25:35.640Z,100782.50
2022-12-24T23:28:02.364Z,100784.22
2022-12-24T23:30:28.968Z,100788.59
2022-12-24T23:32:55.412Z,100788.63
2022-12-24T23:35:21.892Z,100799.94
2022-12-24T23:37:48.366Z,100791.25
2022-12-24T23:40:14.872Z,100801.69
2022-12-24T23:42:41.511Z,100794.78
2022-12-24T23:45:08.510Z,100794.75
2022-12-24T23:47:35.826Z,100807.84
2022-12-24T23:50:02.762Z,100803.50
2022-12-24T23:52:29.178Z,100798.28
2022-12-24T23:54:55.612Z,100810.47
2022-12-24T23:57:22.061Z,100814.81
2022-12-24T23:59:48.518Z,100818.31
